Lockport, Louisiana
Current Conditions -  °F | °C
As of 1:55 AM on Saturday 20 Dec 2014 (Local Time) from KHUM Reporting Station
Overcast Overcast  
Wind Chill: 50°   Ceiling: 600
Heat Index: 50°   Visibility: 10mi
Dew Point: 49°   Wind: 9mph
Humidity: 97%   Direction: 30°NNE
Pressure: 30.04"   Gusts: NA
Location:  29.65°N, 90.54°W
Report Text: KHUM 200755Z AUTO 03008KT 10SM OVC006 10/10 A3004 RMK AO2 P0001 T01010096
Loading
Personal Weather Stations






























Interactive Weather Map New forecast layout! Learn more

10-Day Weather Forecast

Advertisements
Track Severe Weather on mobile